Bruce Mcallister — WDD5894 — position and weather

sailwx.info

Track history (hours):
 
Tides and Currents Weather Stations Pressure Air Temp Water Temp Dewpoint Dewpoint Depression Visibility Wind Speed Wind Dir Waves Ship Positions

Bruce Mcallister

Owner: McAllister Towing & Transportation Company Inc., Staten Island, NY. More information available from US FCC via Universal Licensing System and Coast Guard Vessel Documentation Center.

Last reported at 2018-Feb-24 22:00 UTC. Time now 2018-Feb-24 22:20 UTC.
Position N 40°38' W 074°10'.

Length 33 m; draft 4.9 m.

Type: Tug. MMSI: 367165430.

Date/timePositionNaut miles runAvg speedWind from/ knotsBaromVisibWave heightAir tempDewpointWater temp
2018-Feb-24 22:00N 40°38' W 074°10'2 3.7
2018-Feb-24 21:30N 40°39' W 074°07'1 2.4
2018-Feb-24 21:01N 40°39' W 074°09'2 3.4
2018-Feb-24 20:30N 40°41' W 074°09'1 1.3
2018-Feb-24 19:59N 40°41' W 074°09'0 0.2
2018-Feb-24 19:30N 40°41' W 074°09'0 0.0
2018-Feb-24 19:00N 40°41' W 074°09'0 0.0
2018-Feb-24 18:29N 40°41' W 074°09'0 0.0
2018-Feb-24 18:00N 40°41' W 074°09'1 2.4
2018-Feb-24 17:30N 40°40' W 074°08'0 0.4
2018-Feb-24 17:01N 40°40' W 074°08'2 3.2
2018-Feb-24 16:30N 40°39' W 074°08'3 5.2
2018-Feb-24 16:00N 40°39' W 074°05'2 4.6
2018-Feb-24 15:30N 40°39' W 074°08'1 3.0
2018-Feb-24 15:01N 40°40' W 074°08'0 0.9
2018-Feb-24 14:30N 40°40' W 074°08'0 0.0
2018-Feb-24 14:00N 40°40' W 074°08'0 0.0
2018-Feb-24 13:30N 40°40' W 074°08'0 0.0
2018-Feb-24 13:01N 40°40' W 074°08'0 0.0
2018-Feb-24 12:30N 40°40' W 074°08'0 0.0
2018-Feb-24 12:00N 40°40' W 074°08'0 0.0
2018-Feb-24 11:30N 40°40' W 074°08'0 0.1
2018-Feb-24 11:00N 40°40' W 074°08'0 0.0
2018-Feb-24 10:31N 40°40' W 074°08'0 0.0
2018-Feb-24 10:00N 40°40' W 074°08'0 0.0
2018-Feb-24 09:30N 40°40' W 074°08'0 0.0
2018-Feb-24 09:00N 40°40' W 074°08'0 0.0
2018-Feb-24 08:30N 40°40' W 074°08'0 0.0
2018-Feb-24 08:00N 40°40' W 074°08'0 0.0
2018-Feb-24 07:30N 40°40' W 074°08'0 0.0
2018-Feb-24 07:00N 40°40' W 074°08'0 0.0
2018-Feb-24 06:31N 40°40' W 074°08'0 0.0
2018-Feb-24 06:00N 40°40' W 074°08'0 0.0
2018-Feb-24 05:30N 40°40' W 074°08'0 0.0
2018-Feb-24 04:59N 40°40' W 074°08'0 0.0
2018-Feb-24 04:30N 40°40' W 074°08'0 0.0
2018-Feb-24 04:01N 40°40' W 074°08'0 0.0
2018-Feb-24 03:30N 40°40' W 074°08'0 0.0
2018-Feb-24 03:01N 40°40' W 074°08'0 0.0
2018-Feb-24 02:31N 40°40' W 074°08'0 0.0
2018-Feb-24 02:00N 40°40' W 074°08'0 0.0
2018-Feb-24 01:30N 40°40' W 074°08'0 0.0
2018-Feb-24 01:00N 40°40' W 074°08'0 0.0
2018-Feb-24 00:30N 40°40' W 074°08'0 0.0
2018-Feb-24 00:00N 40°40' W 074°08'0 0.0
2018-Feb-23 23:30N 40°40' W 074°08'0 0.0
2018-Feb-23 23:00N 40°40' W 074°08'0 0.0
2018-Feb-23 22:30N 40°40' W 074°08'0 0.7
2018-Feb-23 22:00N 40°41' W 074°09'2 4.4
2018-Feb-23 21:30N 40°39' W 074°09'3 5.4
2018-Feb-23 21:00N 40°39' W 074°05'3 6.2
2018-Feb-23 20:30N 40°36' W 074°03'4 6.8
2018-Feb-23 19:59N 40°39' W 074°06'3 5.6
2018-Feb-23 19:30N 40°38' W 074°10'0 0.0
2018-Feb-23 19:00N 40°38' W 074°10'0 0.0
2018-Feb-23 18:30N 40°38' W 074°10'0 0.0
2018-Feb-23 18:00N 40°38' W 074°10'0 0.0
2018-Feb-23 17:30N 40°38' W 074°10'0 0.0
2018-Feb-23 17:00N 40°38' W 074°10'0 0.0
2018-Feb-23 16:30N 40°38' W 074°10'0 0.0
2018-Feb-23 16:00N 40°38' W 074°10'0 0.0
2018-Feb-23 15:30N 40°38' W 074°10'0 0.0
2018-Feb-23 15:00N 40°38' W 074°10'0 0.0
2018-Feb-23 14:29N 40°38' W 074°10'0 0.0
2018-Feb-23 13:59N 40°38' W 074°10'0 0.0
2018-Feb-23 13:30N 40°38' W 074°10'0 0.0
2018-Feb-23 13:00N 40°38' W 074°10'0 0.0
2018-Feb-23 12:30N 40°38' W 074°10'0 0.0
2018-Feb-23 11:59N 40°38' W 074°10'0 0.0
2018-Feb-23 11:31N 40°38' W 074°10'0 0.0
2018-Feb-23 11:01N 40°38' W 074°10'0 0.0
2018-Feb-23 10:30N 40°38' W 074°10'0 0.0
2018-Feb-23 10:00N 40°38' W 074°10'0 0.0
2018-Feb-23 09:30N 40°38' W 074°10'0 0.0
2018-Feb-23 09:00N 40°38' W 074°10'0 0.0
2018-Feb-23 08:30N 40°38' W 074°10'0 0.0
2018-Feb-23 08:00N 40°38' W 074°10'0 0.0
2018-Feb-23 07:30N 40°38' W 074°10'0 0.0
2018-Feb-23 07:00N 40°38' W 074°10'0 0.0
2018-Feb-23 06:29N 40°38' W 074°10'0 0.0
2018-Feb-23 05:57N 40°38' W 074°10'0 0.0
2018-Feb-23 05:30N 40°38' W 074°10'0 0.0
2018-Feb-23 05:00N 40°38' W 074°10'0 0.0
2018-Feb-23 04:28N 40°38' W 074°10'0 0.0
2018-Feb-23 04:00N 40°38' W 074°10'2 5.0
2018-Feb-23 03:30N 40°39' W 074°07'5 9.2
2018-Feb-23 03:00N 40°36' W 074°02'4 7.5
2018-Feb-23 02:28N 40°39' W 074°05'3 5.2
2018-Feb-23 01:59N 40°39' W 074°08'2 4.7
2018-Feb-23 01:30N 40°41' W 074°08'1 1.6
2018-Feb-23 01:00N 40°42' W 074°08'1 1.4
2018-Feb-23 00:30N 40°41' W 074°09'0 0.9
2018-Feb-23 00:00N 40°40' W 074°08'0 0.0
2018-Feb-22 23:30N 40°40' W 074°08'0 0.0
2018-Feb-22 23:00N 40°40' W 074°08'0 0.0
2018-Feb-22 22:30N 40°40' W 074°08'0 0.0
2018-Feb-22 22:00N 40°40' W 074°08'0 0.0
2018-Feb-22 21:30N 40°40' W 074°08'0 0.0
2018-Feb-22 20:59N 40°40' W 074°08'0 0.0
2018-Feb-22 20:31N 40°40' W 074°08'0 0.0
2018-Feb-22 19:58N 40°40' W 074°08'0 0.0
2018-Feb-22 19:30N 40°40' W 074°08'0 0.0
2018-Feb-22 19:00N 40°40' W 074°08'0 0.0
2018-Feb-22 18:30N 40°40' W 074°08'0 0.0
2018-Feb-22 18:00N 40°40' W 074°08'0 0.0
2018-Feb-22 17:30N 40°40' W 074°08'0 0.0
2018-Feb-22 17:01N 40°40' W 074°08'2 4.5
2018-Feb-22 16:30N 40°38' W 074°10'4 9.1
2018-Feb-22 16:00N 40°40' W 074°04'4 8.2
2018-Feb-22 15:30N 40°36' W 074°02'711.3
2018-Feb-22 14:54N 40°29' W 074°03'2 3.5
2018-Feb-22 14:26N 40°27' W 074°03'1 1.8
2018-Feb-22 13:56N 40°28' W 074°02'0 0.6
2018-Feb-22 13:30N 40°28' W 074°03'3 5.0
2018-Feb-22 12:59N 40°31' W 074°03'612.9
2018-Feb-22 12:30N 40°37' W 074°03'3 6.9
2018-Feb-22 12:00N 40°40' W 074°05'0 0.3
2018-Feb-22 11:30N 40°40' W 074°05'0 0.4
2018-Feb-22 11:00N 40°40' W 074°05'1 1.6
2018-Feb-22 10:31N 40°40' W 074°04'3 5.6
2018-Feb-22 09:59N 40°39' W 074°08'2 3.5
2018-Feb-22 09:30N 40°38' W 074°10'0 0.0
2018-Feb-22 09:00N 40°38' W 074°10'0 0.0
2018-Feb-22 08:30N 40°38' W 074°10'0 0.0
2018-Feb-22 08:00N 40°38' W 074°10'0 0.0
2018-Feb-22 07:30N 40°38' W 074°10'0 0.0
2018-Feb-22 07:00N 40°38' W 074°10'0 0.0
2018-Feb-22 06:30N 40°38' W 074°10'0 0.0
2018-Feb-22 06:00N 40°38' W 074°10'0 0.0
2018-Feb-22 05:30N 40°38' W 074°10'0 0.0
2018-Feb-22 05:00N 40°38' W 074°10'0 0.0
2018-Feb-22 04:30N 40°38' W 074°10'0 0.0
2018-Feb-22 04:00N 40°38' W 074°10'0 0.0
2018-Feb-22 03:30N 40°38' W 074°10'0 0.0
2018-Feb-22 02:59N 40°38' W 074°10'0 0.0
2018-Feb-22 02:29N 40°38' W 074°10'0 0.0
2018-Feb-22 02:00N 40°38' W 074°10'0 0.0
2018-Feb-22 01:30N 40°38' W 074°10'0 0.0
2018-Feb-22 01:00N 40°38' W 074°10'0 0.0
2018-Feb-22 00:30N 40°38' W 074°10'0 0.0
2018-Feb-22 00:00N 40°38' W 074°10'0 0.0
2018-Feb-21 23:29N 40°38' W 074°10'0 0.0
2018-Feb-21 23:00N 40°38' W 074°10'1 1.4
2018-Feb-21 22:29N 40°39' W 074°09'2 4.3
2018-Feb-21 22:00N 40°41' W 074°09'1 1.6
2018-Feb-21 21:30N 40°40' W 074°08'0 0.0
2018-Feb-21 21:00N 40°40' W 074°08'0 0.0
2018-Feb-21 20:30N 40°40' W 074°08'0 0.0
2018-Feb-21 20:00N 40°40' W 074°08'0 0.0
2018-Feb-21 19:30N 40°40' W 074°08'0 0.2
2018-Feb-21 19:00N 40°41' W 074°08'3 6.4
2018-Feb-21 18:30N 40°38' W 074°12'3 5.1
2018-Feb-21 18:00N 40°36' W 074°12'0 0.0
2018-Feb-21 17:30N 40°36' W 074°12'0 0.1
2018-Feb-21 17:00N 40°36' W 074°12'1 3.0
2018-Feb-21 16:30N 40°34' W 074°13'1 2.0
2018-Feb-21 15:59N 40°34' W 074°13'3 7.1
2018-Feb-21 15:30N 40°37' W 074°12'2 4.3
2018-Feb-21 15:00N 40°39' W 074°11'1 1.9
2018-Feb-21 14:30N 40°38' W 074°10'0 0.0
2018-Feb-21 14:00N 40°38' W 074°10'0 0.0
2018-Feb-21 13:30N 40°38' W 074°10'0 0.0
2018-Feb-21 13:00N 40°38' W 074°10'0 0.0
2018-Feb-21 12:28N 40°38' W 074°10'0 0.0
2018-Feb-21 12:00N 40°38' W 074°10'0 0.0
2018-Feb-21 11:30N 40°38' W 074°10'0 0.0
2018-Feb-21 11:00N 40°38' W 074°10'0 0.0
2018-Feb-21 10:30N 40°38' W 074°10'0 0.0
2018-Feb-21 10:00N 40°38' W 074°10'0 0.0
2018-Feb-21 09:30N 40°38' W 074°10'0 0.0
2018-Feb-21 09:00N 40°38' W 074°10'0 0.0
2018-Feb-21 08:30N 40°38' W 074°10'0 0.0
2018-Feb-21 08:00N 40°38' W 074°10'0 0.0
2018-Feb-21 07:30N 40°38' W 074°10'0 0.0
2018-Feb-21 07:00N 40°38' W 074°10'0 0.0
2018-Feb-21 06:29N 40°38' W 074°10'0 0.0
2018-Feb-21 06:00N 40°38' W 074°10'0 0.0
2018-Feb-21 05:30N 40°38' W 074°10'0 0.0
2018-Feb-21 05:00N 40°38' W 074°10'0 0.0
2018-Feb-21 04:30N 40°38' W 074°10'0 0.0
2018-Feb-21 04:00N 40°38' W 074°10'0 0.0
2018-Feb-21 03:30N 40°38' W 074°10'0 0.0
2018-Feb-21 03:00N 40°38' W 074°10'0 0.0
2018-Feb-21 02:29N 40°38' W 074°10'0 0.0
2018-Feb-21 01:59N 40°38' W 074°10'1 1.3
2018-Feb-21 01:28N 40°39' W 074°09'1 3.0
2018-Feb-21 01:00N 40°40' W 074°08'1 1.4
2018-Feb-21 00:30N 40°40' W 074°09'2 3.7
2018-Feb-21 00:00N 40°39' W 074°06'3 5.5
2018-Feb-20 23:30N 40°37' W 074°03'2 3.3
2018-Feb-20 23:00N 40°39' W 074°04'4 8.3
2018-Feb-20 22:30N 40°38' W 074°10'0 0.0
2018-Feb-20 21:59N 40°38' W 074°10'0 0.0
2018-Feb-20 21:30N 40°38' W 074°10'0 0.0
2018-Feb-20 21:00N 40°38' W 074°10'0 0.0
2018-Feb-20 20:30N 40°38' W 074°10'0 0.0
2018-Feb-20 19:59N 40°38' W 074°10'0 0.0
2018-Feb-20 19:30N 40°38' W 074°10'0 0.0
2018-Feb-20 19:00N 40°38' W 074°10'2 4.8
2018-Feb-20 18:30N 40°39' W 074°07'0 0.5
2018-Feb-20 18:00N 40°39' W 074°07'1 1.8
2018-Feb-20 17:30N 40°39' W 074°08'1 2.6
2018-Feb-20 17:00N 40°38' W 074°10'0 0.0
2018-Feb-20 16:30N 40°38' W 074°10'2 4.4
2018-Feb-20 16:00N 40°39' W 074°07'2 3.2
2018-Feb-20 15:30N 40°40' W 074°08'0 0.7
2018-Feb-20 15:00N 40°40' W 074°08'0 0.0
2018-Feb-20 14:30N 40°40' W 074°08'0 0.5
2018-Feb-20 14:00N 40°40' W 074°09'2 3.5
2018-Feb-20 13:29N 40°38' W 074°10'4 8.2
2018-Feb-20 13:00N 40°39' W 074°05'1 2.1
2018-Feb-20 12:30N 40°40' W 074°05'0 0.8
2018-Feb-20 12:00N 40°40' W 074°04'0 0.8
2018-Feb-20 11:30N 40°40' W 074°04'2 3.2
2018-Feb-20 11:00N 40°38' W 074°03'2 3.8
2018-Feb-20 10:30N 40°40' W 074°05'0 0.0
2018-Feb-20 10:00N 40°40' W 074°05'0 0.0
2018-Feb-20 09:30N 40°40' W 074°05'0 0.0
2018-Feb-20 09:00N 40°40' W 074°05'0 0.0
2018-Feb-20 08:30N 40°40' W 074°05'0 0.0
2018-Feb-20 08:00N 40°40' W 074°05'0 0.0
2018-Feb-20 07:30N 40°40' W 074°05'0 0.0
2018-Feb-20 07:00N 40°40' W 074°05'0 0.0
2018-Feb-20 06:28N 40°40' W 074°05'0 0.0
2018-Feb-20 06:00N 40°40' W 074°05'0 0.0
2018-Feb-20 05:30N 40°40' W 074°05'0 0.0
2018-Feb-20 05:00N 40°40' W 074°05'0 0.0
2018-Feb-20 04:28N 40°40' W 074°05'0 0.0
2018-Feb-20 03:58N 40°40' W 074°05'0 0.0
2018-Feb-20 03:30N 40°40' W 074°05'0 0.0
2018-Feb-20 03:00N 40°40' W 074°05'0 0.0
2018-Feb-20 02:29N 40°40' W 074°05'0 0.0
2018-Feb-20 02:00N 40°40' W 074°05'0 0.0
2018-Feb-20 01:30N 40°40' W 074°05'0 0.0
2018-Feb-20 01:00N 40°40' W 074°05'0 0.0
2018-Feb-20 00:30N 40°40' W 074°05'0 0.0
2018-Feb-19 23:59N 40°40' W 074°05'0 0.0
2018-Feb-19 23:30N 40°40' W 074°05'0 0.0
2018-Feb-19 23:00N 40°40' W 074°05'0 0.0
2018-Feb-19 22:30N 40°40' W 074°05'0 0.0
2018-Feb-19 22:00N 40°40' W 074°05'1 2.5
2018-Feb-19 21:30N 40°39' W 074°03'1 2.5
2018-Feb-19 21:00N 40°40' W 074°04'0 0.4
2018-Feb-19 20:30N 40°40' W 074°05'0 0.4
2018-Feb-19 19:58N 40°40' W 074°05'0 0.0
2018-Feb-19 19:29N 40°40' W 074°05'0 0.0
2018-Feb-19 19:00N 40°40' W 074°04'0 0.0
2018-Feb-19 18:30N 40°40' W 074°04'0 0.0
2018-Feb-19 18:00N 40°40' W 074°04'1 2.0
2018-Feb-19 17:30N 40°41' W 074°04'0 0.1
2018-Feb-19 17:00N 40°41' W 074°04'1 1.4
2018-Feb-19 16:30N 40°40' W 074°04'2 4.0
2018-Feb-19 16:00N 40°39' W 074°03'3 6.8
2018-Feb-19 15:30N 40°41' W 074°01'4 8.0
2018-Feb-19 15:00N 40°45' W 073°58'4 7.1
2018-Feb-19 14:29N 40°47' W 073°55'4 8.6
2018-Feb-19 13:59N 40°48' W 073°49'10 0.4
2018-Feb-18 14:00N 40°55' W 073°39'5 9.8
2018-Feb-18 13:29N 40°52' W 073°45'5 9.6
2018-Feb-18 13:00N 40°48' W 073°48'510.7
2018-Feb-18 12:30N 40°47' W 073°55'612.1
2018-Feb-18 12:00N 40°42' W 073°59'510.5
2018-Feb-18 11:29N 40°39' W 074°05'4 7.4
2018-Feb-18 10:59N 40°38' W 074°10'0 0.0
2018-Feb-18 10:30N 40°38' W 074°10'0 0.0
2018-Feb-18 09:59N 40°38' W 074°10'0 0.0
2018-Feb-18 09:30N 40°38' W 074°10'0 0.0
2018-Feb-18 09:00N 40°38' W 074°10'0 0.0
2018-Feb-18 08:31N 40°38' W 074°10'0 0.0
2018-Feb-18 08:00N 40°38' W 074°10'0 0.0
2018-Feb-18 07:30N 40°38' W 074°10'0 0.0
2018-Feb-18 06:59N 40°38' W 074°10'0 0.0
2018-Feb-18 06:31N 40°38' W 074°10'0 0.0
2018-Feb-18 06:01N 40°38' W 074°10'0 0.0
2018-Feb-18 05:30N 40°38' W 074°10'0 0.0
2018-Feb-18 05:00N 40°38' W 074°10'0 0.0
2018-Feb-18 04:30N 40°38' W 074°10'0 0.0
2018-Feb-18 04:00N 40°38' W 074°10'0 0.0
2018-Feb-18 03:30N 40°38' W 074°10'0 0.0
2018-Feb-18 03:00N 40°38' W 074°10'0 0.0
2018-Feb-18 02:30N 40°38' W 074°10'0 0.0
2018-Feb-18 02:00N 40°38' W 074°10'0 0.0
2018-Feb-18 01:30N 40°38' W 074°10'0 0.0
2018-Feb-18 01:00N 40°38' W 074°10'0 0.0
2018-Feb-18 00:29N 40°38' W 074°10'0 0.0
2018-Feb-18 00:00N 40°38' W 074°10'0 0.0
2018-Feb-17 23:31N 40°38' W 074°10'0 0.0
2018-Feb-17 22:59N 40°38' W 074°10'0 0.0
2018-Feb-17 22:30N 40°38' W 074°10'0 0.0
2018-Feb-17 22:00N 40°38' W 074°10'0 0.0
2018-Feb-17 21:30N 40°38' W 074°10'0 0.0
2018-Feb-17 21:00N 40°38' W 074°10'0 0.0
2018-Feb-17 20:30N 40°38' W 074°10'0 0.0
2018-Feb-17 20:01N 40°38' W 074°10'2 4.4
2018-Feb-17 19:30N 40°39' W 074°07'2 3.7
2018-Feb-17 19:00N 40°40' W 074°08'1 2.6
2018-Feb-17 18:29N 40°42' W 074°08'1 1.6
2018-Feb-17 18:00N 40°41' W 074°08'3 5.9
2018-Feb-17 17:30N 40°38' W 074°10'0 0.0
2018-Feb-17 17:00N 40°38' W 074°10'0 0.0
2018-Feb-17 16:30N 40°38' W 074°10'0 0.0
2018-Feb-17 16:00N 40°38' W 074°10'3 6.7
2018-Feb-17 15:30N 40°39' W 074°05'3 5.4
2018-Feb-17 15:00N 40°39' W 074°09'1 1.6
2018-Feb-17 14:28N 40°38' W 074°10'0 0.0
2018-Feb-17 14:00N 40°38' W 074°10'0 0.0
2018-Feb-17 13:30N 40°38' W 074°10'0 0.0
2018-Feb-17 13:00N 40°38' W 074°10'0 0.0
2018-Feb-17 12:30N 40°38' W 074°10'0 0.0
2018-Feb-17 11:59N 40°38' W 074°10'0 0.0
2018-Feb-17 11:30N 40°38' W 074°10'0 0.0
2018-Feb-17 11:00N 40°38' W 074°10'0 0.0
2018-Feb-17 10:30N 40°38' W 074°10'0 0.0
2018-Feb-17 10:01N 40°38' W 074°10'0 0.0
2018-Feb-17 09:30N 40°38' W 074°10'0 0.0
2018-Feb-17 09:00N 40°38' W 074°10'0 0.0
2018-Feb-17 08:30N 40°38' W 074°10'0 0.0
2018-Feb-17 08:01N 40°38' W 074°10'0 0.0
2018-Feb-17 07:30N 40°38' W 074°10'0 0.0
2018-Feb-17 07:00N 40°38' W 074°10'0 0.0
2018-Feb-17 06:31N 40°38' W 074°10'0 0.0
2018-Feb-17 06:01N 40°38' W 074°10'0 0.0
2018-Feb-17 05:30N 40°38' W 074°10'0 0.0
2018-Feb-17 05:00N 40°38' W 074°10'0 0.0
2018-Feb-17 04:31N 40°38' W 074°10'0 0.0
2018-Feb-17 04:00N 40°38' W 074°10'0 0.0
2018-Feb-17 03:31N 40°38' W 074°10'0 0.0
2018-Feb-17 03:00N 40°38' W 074°10'0 0.0
2018-Feb-17 02:30N 40°38' W 074°10'0 0.0
2018-Feb-17 02:00N 40°38' W 074°10'0 0.0
2018-Feb-17 01:31N 40°38' W 074°10'0 0.0
2018-Feb-17 01:00N 40°38' W 074°10'0 0.0
2018-Feb-17 00:30N 40°38' W 074°10'0 0.0
2018-Feb-17 00:00N 40°38' W 074°10'0 0.0
2018-Feb-16 23:30N 40°38' W 074°10'2 4.7
2018-Feb-16 23:00N 40°41' W 074°09'0 0.9
2018-Feb-16 22:30N 40°40' W 074°08'2 3.4
2018-Feb-16 21:58N 40°39' W 074°08'3 6.5
2018-Feb-16 21:30N 40°39' W 074°04'2 4.3
2018-Feb-16 21:00N 40°37' W 074°03'1 2.3
2018-Feb-16 20:30N 40°38' W 074°04'0 0.0
2018-Feb-16 20:00N 40°38' W 074°04'2 3.8
2018-Feb-16 19:30N 40°39' W 074°03'1 2.7
2018-Feb-16 19:01N 40°40' W 074°05'0 0.1
2018-Feb-16 18:31N 40°40' W 074°05'4 7.7
2018-Feb-16 17:59N 40°38' W 074°10'0 0.5
2018-Feb-16 17:30N 40°38' W 074°10'0 0.0
2018-Feb-16 16:59N 40°38' W 074°10'0 0.0
2018-Feb-16 16:29N 40°38' W 074°10'0 0.0
2018-Feb-16 16:00N 40°38' W 074°10'0 0.0
2018-Feb-16 15:30N 40°38' W 074°10'0 0.0
2018-Feb-16 15:00N 40°38' W 074°10'0 0.0
2018-Feb-16 14:30N 40°38' W 074°10'0 0.0
2018-Feb-16 13:59N 40°38' W 074°10'0 0.0
2018-Feb-16 13:30N 40°38' W 074°10'0 0.0
2018-Feb-16 13:00N 40°38' W 074°10'0 0.0
2018-Feb-16 12:30N 40°38' W 074°10'0 0.0
2018-Feb-16 12:00N 40°38' W 074°10'0 0.0
2018-Feb-16 11:30N 40°38' W 074°10'0 0.0
2018-Feb-16 11:00N 40°38' W 074°10'0 0.0
2018-Feb-16 10:30N 40°38' W 074°10'0 0.0
2018-Feb-16 10:00N 40°38' W 074°10'0 0.0
2018-Feb-16 09:30N 40°38' W 074°10'0 0.0
2018-Feb-16 09:00N 40°38' W 074°10'0 0.0
2018-Feb-16 08:30N 40°38' W 074°10'0 0.0
2018-Feb-16 08:00N 40°38' W 074°10'0 0.0
2018-Feb-16 07:30N 40°38' W 074°10'0 0.0
2018-Feb-16 07:00N 40°38' W 074°10'0 0.0
2018-Feb-16 06:30N 40°38' W 074°10'0 0.0
2018-Feb-16 06:00N 40°38' W 074°10'0 0.0
2018-Feb-16 05:30N 40°38' W 074°10'0 0.0
2018-Feb-16 04:58N 40°38' W 074°10'0 0.0
2018-Feb-16 04:30N 40°38' W 074°10'0 0.0
2018-Feb-16 03:59N 40°38' W 074°10'0 0.0
2018-Feb-16 03:28N 40°38' W 074°10'0 0.0
2018-Feb-16 03:00N 40°38' W 074°10'0 0.0
2018-Feb-16 02:29N 40°38' W 074°10'0 0.0
2018-Feb-16 02:00N 40°38' W 074°10'0 0.0
2018-Feb-16 01:30N 40°38' W 074°10'0 0.0
2018-Feb-16 00:59N 40°38' W 074°10'0 0.0
2018-Feb-16 00:30N 40°38' W 074°10'0 0.0
2018-Feb-16 00:00N 40°38' W 074°10'0 0.0
2018-Feb-15 23:30N 40°38' W 074°10'1 1.5
2018-Feb-15 22:56N 40°39' W 074°09'2 4.1
2018-Feb-15 22:30N 40°41' W 074°09'0 0.4
2018-Feb-15 22:00N 40°41' W 074°09'2 3.0
2018-Feb-15 21:30N 40°39' W 074°09'1 2.0
2018-Feb-15 21:00N 40°38' W 074°10'0 0.0
2018-Feb-15 20:30N 40°38' W 074°10'0 0.0
2018-Feb-15 20:00N 40°38' W 074°10'0 0.0
2018-Feb-15 19:30N 40°38' W 074°10'0 0.0
2018-Feb-15 19:00N 40°38' W 074°10'0 0.1
2018-Feb-15 18:30N 40°39' W 074°10'2 3.7
2018-Feb-15 18:00N 40°38' W 074°12'0 0.0
2018-Feb-15 17:29N 40°38' W 074°12'0 0.0
2018-Feb-15 17:00N 40°38' W 074°12'0 0.0
2018-Feb-15 16:30N 40°38' W 074°12'0 0.0
2018-Feb-15 16:00N 40°38' W 074°12'2 3.1
2018-Feb-15 15:30N 40°39' W 074°11'1 1.4
2018-Feb-15 15:00N 40°38' W 074°10'0 0.0
2018-Feb-15 14:30N 40°38' W 074°10'0 0.0
2018-Feb-15 13:59N 40°38' W 074°10'0 0.0
2018-Feb-15 13:30N 40°38' W 074°10'2 4.6
2018-Feb-15 13:00N 40°40' W 074°08'1 1.1
2018-Feb-15 12:30N 40°41' W 074°08'0 1.0
2018-Feb-15 12:01N 40°41' W 074°08'2 3.9
2018-Feb-15 11:29N 40°39' W 074°09'3 5.5
2018-Feb-15 11:01N 40°39' W 074°05'2 4.4
2018-Feb-15 10:31N 40°38' W 074°03'0 0.2
2018-Feb-15 10:01N 40°38' W 074°03'4 8.2
2018-Feb-15 09:30N 40°39' W 074°08'1 2.3
2018-Feb-15 08:59N 40°38' W 074°10'0 0.1
2018-Feb-15 08:30N 40°38' W 074°10'0 0.0
2018-Feb-15 08:00N 40°38' W 074°10'0 0.0
2018-Feb-15 07:30N 40°38' W 074°10'0 0.0
2018-Feb-15 07:00N 40°38' W 074°10'0 0.0
2018-Feb-15 06:30N 40°38' W 074°10'0 0.0
2018-Feb-15 06:00N 40°38' W 074°10'0 0.0
2018-Feb-15 05:30N 40°38' W 074°10'0 0.0
2018-Feb-15 05:00N 40°38' W 074°10'0 0.0
2018-Feb-15 04:30N 40°38' W 074°10'0 0.0
2018-Feb-15 04:00N 40°38' W 074°10'0 0.0
2018-Feb-15 03:31N 40°38' W 074°10'0 0.0
2018-Feb-15 03:00N 40°38' W 074°10'0 0.0
2018-Feb-15 02:30N 40°38' W 074°10'0 0.0
2018-Feb-15 02:00N 40°38' W 074°10'0 0.0
2018-Feb-15 01:30N 40°38' W 074°10'0 0.0
2018-Feb-15 01:00N 40°38' W 074°10'0 0.0
2018-Feb-15 00:30N 40°38' W 074°10'0 0.0
2018-Feb-15 00:00N 40°38' W 074°10'0 0.0
2018-Feb-14 23:30N 40°38' W 074°10'0 0.0
2018-Feb-14 22:59N 40°38' W 074°10'0 0.0
2018-Feb-14 22:31N 40°38' W 074°10'  
Track history (hours):
 
Tides and Currents Weather Stations Pressure Air Temp Water Temp Dewpoint Dewpoint Depression Visibility Wind Speed Wind Dir Waves Ship Positions

Bruce Mcallister

Owner: McAllister Towing & Transportation Company Inc., Staten Island, NY. More information available from US FCC via Universal Licensing System and Coast Guard Vessel Documentation Center.

Last reported at 2018-Feb-24 22:00 UTC. Time now 2018-Feb-24 22:20 UTC.
Position N 40°38' W 074°10'.

Length 33 m; draft 4.9 m.

Type: Tug. MMSI: 367165430.

Date/timePositionNaut miles runAvg speedWind from/ knotsBaromVisibWave heightAir tempDewpointWater temp
2018-Feb-24 22:00N 40°38' W 074°10'2 3.7
2018-Feb-24 21:30N 40°39' W 074°07'1 2.4
2018-Feb-24 21:01N 40°39' W 074°09'2 3.4
2018-Feb-24 20:30N 40°41' W 074°09'1 1.3
2018-Feb-24 19:59N 40°41' W 074°09'0 0.2
2018-Feb-24 19:30N 40°41' W 074°09'0 0.0
2018-Feb-24 19:00N 40°41' W 074°09'0 0.0
2018-Feb-24 18:29N 40°41' W 074°09'0 0.0
2018-Feb-24 18:00N 40°41' W 074°09'1 2.4
2018-Feb-24 17:30N 40°40' W 074°08'0 0.4
2018-Feb-24 17:01N 40°40' W 074°08'2 3.2
2018-Feb-24 16:30N 40°39' W 074°08'3 5.2
2018-Feb-24 16:00N 40°39' W 074°05'2 4.6
2018-Feb-24 15:30N 40°39' W 074°08'1 3.0
2018-Feb-24 15:01N 40°40' W 074°08'0 0.9
2018-Feb-24 14:30N 40°40' W 074°08'0 0.0
2018-Feb-24 14:00N 40°40' W 074°08'0 0.0
2018-Feb-24 13:30N 40°40' W 074°08'0 0.0
2018-Feb-24 13:01N 40°40' W 074°08'0 0.0
2018-Feb-24 12:30N 40°40' W 074°08'0 0.0
2018-Feb-24 12:00N 40°40' W 074°08'0 0.0
2018-Feb-24 11:30N 40°40' W 074°08'0 0.1
2018-Feb-24 11:00N 40°40' W 074°08'0 0.0
2018-Feb-24 10:31N 40°40' W 074°08'0 0.0
2018-Feb-24 10:00N 40°40' W 074°08'0 0.0
2018-Feb-24 09:30N 40°40' W 074°08'0 0.0
2018-Feb-24 09:00N 40°40' W 074°08'0 0.0
2018-Feb-24 08:30N 40°40' W 074°08'0 0.0
2018-Feb-24 08:00N 40°40' W 074°08'0 0.0
2018-Feb-24 07:30N 40°40' W 074°08'0 0.0
2018-Feb-24 07:00N 40°40' W 074°08'0 0.0
2018-Feb-24 06:31N 40°40' W 074°08'0 0.0
2018-Feb-24 06:00N 40°40' W 074°08'0 0.0
2018-Feb-24 05:30N 40°40' W 074°08'0 0.0
2018-Feb-24 04:59N 40°40' W 074°08'0 0.0
2018-Feb-24 04:30N 40°40' W 074°08'0 0.0
2018-Feb-24 04:01N 40°40' W 074°08'0 0.0
2018-Feb-24 03:30N 40°40' W 074°08'0 0.0
2018-Feb-24 03:01N 40°40' W 074°08'0 0.0
2018-Feb-24 02:31N 40°40' W 074°08'0 0.0
2018-Feb-24 02:00N 40°40' W 074°08'0 0.0
2018-Feb-24 01:30N 40°40' W 074°08'0 0.0
2018-Feb-24 01:00N 40°40' W 074°08'0 0.0
2018-Feb-24 00:30N 40°40' W 074°08'0 0.0
2018-Feb-24 00:00N 40°40' W 074°08'0 0.0
2018-Feb-23 23:30N 40°40' W 074°08'0 0.0
2018-Feb-23 23:00N 40°40' W 074°08'0 0.0
2018-Feb-23 22:30N 40°40' W 074°08'0 0.7
2018-Feb-23 22:00N 40°41' W 074°09'2 4.4
2018-Feb-23 21:30N 40°39' W 074°09'3 5.4
2018-Feb-23 21:00N 40°39' W 074°05'3 6.2
2018-Feb-23 20:30N 40°36' W 074°03'4 6.8
2018-Feb-23 19:59N 40°39' W 074°06'3 5.6
2018-Feb-23 19:30N 40°38' W 074°10'0 0.0
2018-Feb-23 19:00N 40°38' W 074°10'0 0.0
2018-Feb-23 18:30N 40°38' W 074°10'0 0.0
2018-Feb-23 18:00N 40°38' W 074°10'0 0.0
2018-Feb-23 17:30N 40°38' W 074°10'0 0.0
2018-Feb-23 17:00N 40°38' W 074°10'0 0.0
2018-Feb-23 16:30N 40°38' W 074°10'0 0.0
2018-Feb-23 16:00N 40°38' W 074°10'0 0.0
2018-Feb-23 15:30N 40°38' W 074°10'0 0.0
2018-Feb-23 15:00N 40°38' W 074°10'0 0.0
2018-Feb-23 14:29N 40°38' W 074°10'0 0.0
2018-Feb-23 13:59N 40°38' W 074°10'0 0.0
2018-Feb-23 13:30N 40°38' W 074°10'0 0.0
2018-Feb-23 13:00N 40°38' W 074°10'0 0.0
2018-Feb-23 12:30N 40°38' W 074°10'0 0.0
2018-Feb-23 11:59N 40°38' W 074°10'0 0.0
2018-Feb-23 11:31N 40°38' W 074°10'0 0.0
2018-Feb-23 11:01N 40°38' W 074°10'0 0.0
2018-Feb-23 10:30N 40°38' W 074°10'0 0.0
2018-Feb-23 10:00N 40°38' W 074°10'0 0.0
2018-Feb-23 09:30N 40°38' W 074°10'0 0.0
2018-Feb-23 09:00N 40°38' W 074°10'0 0.0
2018-Feb-23 08:30N 40°38' W 074°10'0 0.0
2018-Feb-23 08:00N 40°38' W 074°10'0 0.0
2018-Feb-23 07:30N 40°38' W 074°10'0 0.0
2018-Feb-23 07:00N 40°38' W 074°10'0 0.0
2018-Feb-23 06:29N 40°38' W 074°10'0 0.0
2018-Feb-23 05:57N 40°38' W 074°10'0 0.0
2018-Feb-23 05:30N 40°38' W 074°10'0 0.0
2018-Feb-23 05:00N 40°38' W 074°10'0 0.0
2018-Feb-23 04:28N 40°38' W 074°10'0 0.0
2018-Feb-23 04:00N 40°38' W 074°10'2 5.0
2018-Feb-23 03:30N 40°39' W 074°07'5 9.2
2018-Feb-23 03:00N 40°36' W 074°02'4 7.5
2018-Feb-23 02:28N 40°39' W 074°05'3 5.2
2018-Feb-23 01:59N 40°39' W 074°08'2 4.7
2018-Feb-23 01:30N 40°41' W 074°08'1 1.6
2018-Feb-23 01:00N 40°42' W 074°08'1 1.4
2018-Feb-23 00:30N 40°41' W 074°09'0 0.9
2018-Feb-23 00:00N 40°40' W 074°08'0 0.0
2018-Feb-22 23:30N 40°40' W 074°08'0 0.0
2018-Feb-22 23:00N 40°40' W 074°08'0 0.0
2018-Feb-22 22:30N 40°40' W 074°08'0 0.0
2018-Feb-22 22:00N 40°40' W 074°08'0 0.0
2018-Feb-22 21:30N 40°40' W 074°08'0 0.0
2018-Feb-22 20:59N 40°40' W 074°08'0 0.0
2018-Feb-22 20:31N 40°40' W 074°08'0 0.0
2018-Feb-22 19:58N 40°40' W 074°08'0 0.0
2018-Feb-22 19:30N 40°40' W 074°08'0 0.0
2018-Feb-22 19:00N 40°40' W 074°08'0 0.0
2018-Feb-22 18:30N 40°40' W 074°08'0 0.0
2018-Feb-22 18:00N 40°40' W 074°08'0 0.0
2018-Feb-22 17:30N 40°40' W 074°08'0 0.0
2018-Feb-22 17:01N 40°40' W 074°08'2 4.5
2018-Feb-22 16:30N 40°38' W 074°10'4 9.1
2018-Feb-22 16:00N 40°40' W 074°04'4 8.2
2018-Feb-22 15:30N 40°36' W 074°02'711.3
2018-Feb-22 14:54N 40°29' W 074°03'2 3.5
2018-Feb-22 14:26N 40°27' W 074°03'1 1.8
2018-Feb-22 13:56N 40°28' W 074°02'0 0.6
2018-Feb-22 13:30N 40°28' W 074°03'3 5.0
2018-Feb-22 12:59N 40°31' W 074°03'612.9
2018-Feb-22 12:30N 40°37' W 074°03'3 6.9
2018-Feb-22 12:00N 40°40' W 074°05'0 0.3
2018-Feb-22 11:30N 40°40' W 074°05'0 0.4
2018-Feb-22 11:00N 40°40' W 074°05'1 1.6
2018-Feb-22 10:31N 40°40' W 074°04'3 5.6
2018-Feb-22 09:59N 40°39' W 074°08'2 3.5
2018-Feb-22 09:30N 40°38' W 074°10'0 0.0
2018-Feb-22 09:00N 40°38' W 074°10'0 0.0
2018-Feb-22 08:30N 40°38' W 074°10'0 0.0
2018-Feb-22 08:00N 40°38' W 074°10'0 0.0
2018-Feb-22 07:30N 40°38' W 074°10'0 0.0
2018-Feb-22 07:00N 40°38' W 074°10'0 0.0
2018-Feb-22 06:30N 40°38' W 074°10'0 0.0
2018-Feb-22 06:00N 40°38' W 074°10'0 0.0
2018-Feb-22 05:30N 40°38' W 074°10'0 0.0
2018-Feb-22 05:00N 40°38' W 074°10'0 0.0
2018-Feb-22 04:30N 40°38' W 074°10'0 0.0
2018-Feb-22 04:00N 40°38' W 074°10'0 0.0
2018-Feb-22 03:30N 40°38' W 074°10'0 0.0
2018-Feb-22 02:59N 40°38' W 074°10'0 0.0
2018-Feb-22 02:29N 40°38' W 074°10'0 0.0
2018-Feb-22 02:00N 40°38' W 074°10'0 0.0
2018-Feb-22 01:30N 40°38' W 074°10'0 0.0
2018-Feb-22 01:00N 40°38' W 074°10'0 0.0
2018-Feb-22 00:30N 40°38' W 074°10'0 0.0
2018-Feb-22 00:00N 40°38' W 074°10'0 0.0
2018-Feb-21 23:29N 40°38' W 074°10'0 0.0
2018-Feb-21 23:00N 40°38' W 074°10'1 1.4
2018-Feb-21 22:29N 40°39' W 074°09'2 4.3
2018-Feb-21 22:00N 40°41' W 074°09'1 1.6
2018-Feb-21 21:30N 40°40' W 074°08'0 0.0
2018-Feb-21 21:00N 40°40' W 074°08'0 0.0
2018-Feb-21 20:30N 40°40' W 074°08'0 0.0
2018-Feb-21 20:00N 40°40' W 074°08'0 0.0
2018-Feb-21 19:30N 40°40' W 074°08'0 0.2
2018-Feb-21 19:00N 40°41' W 074°08'3 6.4
2018-Feb-21 18:30N 40°38' W 074°12'3 5.1
2018-Feb-21 18:00N 40°36' W 074°12'0 0.0
2018-Feb-21 17:30N 40°36' W 074°12'0 0.1
2018-Feb-21 17:00N 40°36' W 074°12'1 3.0
2018-Feb-21 16:30N 40°34' W 074°13'1 2.0
2018-Feb-21 15:59N 40°34' W 074°13'3 7.1
2018-Feb-21 15:30N 40°37' W 074°12'2 4.3
2018-Feb-21 15:00N 40°39' W 074°11'1 1.9
2018-Feb-21 14:30N 40°38' W 074°10'0 0.0
2018-Feb-21 14:00N 40°38' W 074°10'0 0.0
2018-Feb-21 13:30N 40°38' W 074°10'0 0.0
2018-Feb-21 13:00N 40°38' W 074°10'0 0.0
2018-Feb-21 12:28N 40°38' W 074°10'0 0.0
2018-Feb-21 12:00N 40°38' W 074°10'0 0.0
2018-Feb-21 11:30N 40°38' W 074°10'0 0.0
2018-Feb-21 11:00N 40°38' W 074°10'0 0.0
2018-Feb-21 10:30N 40°38' W 074°10'0 0.0
2018-Feb-21 10:00N 40°38' W 074°10'0 0.0
2018-Feb-21 09:30N 40°38' W 074°10'0 0.0
2018-Feb-21 09:00N 40°38' W 074°10'0 0.0
2018-Feb-21 08:30N 40°38' W 074°10'0 0.0
2018-Feb-21 08:00N 40°38' W 074°10'0 0.0
2018-Feb-21 07:30N 40°38' W 074°10'0 0.0
2018-Feb-21 07:00N 40°38' W 074°10'0 0.0
2018-Feb-21 06:29N 40°38' W 074°10'0 0.0
2018-Feb-21 06:00N 40°38' W 074°10'0 0.0
2018-Feb-21 05:30N 40°38' W 074°10'0 0.0
2018-Feb-21 05:00N 40°38' W 074°10'0 0.0
2018-Feb-21 04:30N 40°38' W 074°10'0 0.0
2018-Feb-21 04:00N 40°38' W 074°10'0 0.0
2018-Feb-21 03:30N 40°38' W 074°10'0 0.0
2018-Feb-21 03:00N 40°38' W 074°10'0 0.0
2018-Feb-21 02:29N 40°38' W 074°10'0 0.0
2018-Feb-21 01:59N 40°38' W 074°10'1 1.3
2018-Feb-21 01:28N 40°39' W 074°09'1 3.0
2018-Feb-21 01:00N 40°40' W 074°08'1 1.4
2018-Feb-21 00:30N 40°40' W 074°09'2 3.7
2018-Feb-21 00:00N 40°39' W 074°06'3 5.5
2018-Feb-20 23:30N 40°37' W 074°03'2 3.3
2018-Feb-20 23:00N 40°39' W 074°04'4 8.3
2018-Feb-20 22:30N 40°38' W 074°10'0 0.0
2018-Feb-20 21:59N 40°38' W 074°10'0 0.0
2018-Feb-20 21:30N 40°38' W 074°10'0 0.0
2018-Feb-20 21:00N 40°38' W 074°10'0 0.0
2018-Feb-20 20:30N 40°38' W 074°10'0 0.0
2018-Feb-20 19:59N 40°38' W 074°10'0 0.0
2018-Feb-20 19:30N 40°38' W 074°10'0 0.0
2018-Feb-20 19:00N 40°38' W 074°10'2 4.8
2018-Feb-20 18:30N 40°39' W 074°07'0 0.5
2018-Feb-20 18:00N 40°39' W 074°07'1 1.8
2018-Feb-20 17:30N 40°39' W 074°08'1 2.6
2018-Feb-20 17:00N 40°38' W 074°10'0 0.0
2018-Feb-20 16:30N 40°38' W 074°10'2 4.4
2018-Feb-20 16:00N 40°39' W 074°07'2 3.2
2018-Feb-20 15:30N 40°40' W 074°08'0 0.7
2018-Feb-20 15:00N 40°40' W 074°08'0 0.0
2018-Feb-20 14:30N 40°40' W 074°08'0 0.5
2018-Feb-20 14:00N 40°40' W 074°09'2 3.5
2018-Feb-20 13:29N 40°38' W 074°10'4 8.2
2018-Feb-20 13:00N 40°39' W 074°05'1 2.1
2018-Feb-20 12:30N 40°40' W 074°05'0 0.8
2018-Feb-20 12:00N 40°40' W 074°04'0 0.8
2018-Feb-20 11:30N 40°40' W 074°04'2 3.2
2018-Feb-20 11:00N 40°38' W 074°03'2 3.8
2018-Feb-20 10:30N 40°40' W 074°05'0 0.0
2018-Feb-20 10:00N 40°40' W 074°05'0 0.0
2018-Feb-20 09:30N 40°40' W 074°05'0 0.0
2018-Feb-20 09:00N 40°40' W 074°05'0 0.0
2018-Feb-20 08:30N 40°40' W 074°05'0 0.0
2018-Feb-20 08:00N 40°40' W 074°05'0 0.0
2018-Feb-20 07:30N 40°40' W 074°05'0 0.0
2018-Feb-20 07:00N 40°40' W 074°05'0 0.0
2018-Feb-20 06:28N 40°40' W 074°05'0 0.0
2018-Feb-20 06:00N 40°40' W 074°05'0 0.0
2018-Feb-20 05:30N 40°40' W 074°05'0 0.0
2018-Feb-20 05:00N 40°40' W 074°05'0 0.0
2018-Feb-20 04:28N 40°40' W 074°05'0 0.0
2018-Feb-20 03:58N 40°40' W 074°05'0 0.0
2018-Feb-20 03:30N 40°40' W 074°05'0 0.0
2018-Feb-20 03:00N 40°40' W 074°05'0 0.0
2018-Feb-20 02:29N 40°40' W 074°05'0 0.0
2018-Feb-20 02:00N 40°40' W 074°05'0 0.0
2018-Feb-20 01:30N 40°40' W 074°05'0 0.0
2018-Feb-20 01:00N 40°40' W 074°05'0 0.0
2018-Feb-20 00:30N 40°40' W 074°05'0 0.0
2018-Feb-19 23:59N 40°40' W 074°05'0 0.0
2018-Feb-19 23:30N 40°40' W 074°05'0 0.0
2018-Feb-19 23:00N 40°40' W 074°05'0 0.0
2018-Feb-19 22:30N 40°40' W 074°05'0 0.0
2018-Feb-19 22:00N 40°40' W 074°05'1 2.5
2018-Feb-19 21:30N 40°39' W 074°03'1 2.5
2018-Feb-19 21:00N 40°40' W 074°04'0 0.4
2018-Feb-19 20:30N 40°40' W 074°05'0 0.4
2018-Feb-19 19:58N 40°40' W 074°05'0 0.0
2018-Feb-19 19:29N 40°40' W 074°05'0 0.0
2018-Feb-19 19:00N 40°40' W 074°04'0 0.0
2018-Feb-19 18:30N 40°40' W 074°04'0 0.0
2018-Feb-19 18:00N 40°40' W 074°04'1 2.0
2018-Feb-19 17:30N 40°41' W 074°04'0 0.1
2018-Feb-19 17:00N 40°41' W 074°04'1 1.4
2018-Feb-19 16:30N 40°40' W 074°04'2 4.0
2018-Feb-19 16:00N 40°39' W 074°03'3 6.8
2018-Feb-19 15:30N 40°41' W 074°01'4 8.0
2018-Feb-19 15:00N 40°45' W 073°58'4 7.1
2018-Feb-19 14:29N 40°47' W 073°55'4 8.6
2018-Feb-19 13:59N 40°48' W 073°49'10 0.4
2018-Feb-18 14:00N 40°55' W 073°39'5 9.8
2018-Feb-18 13:29N 40°52' W 073°45'5 9.6
2018-Feb-18 13:00N 40°48' W 073°48'510.7
2018-Feb-18 12:30N 40°47' W 073°55'612.1
2018-Feb-18 12:00N 40°42' W 073°59'510.5
2018-Feb-18 11:29N 40°39' W 074°05'4 7.4
2018-Feb-18 10:59N 40°38' W 074°10'0 0.0
2018-Feb-18 10:30N 40°38' W 074°10'0 0.0
2018-Feb-18 09:59N 40°38' W 074°10'0 0.0
2018-Feb-18 09:30N 40°38' W 074°10'0 0.0
2018-Feb-18 09:00N 40°38' W 074°10'0 0.0
2018-Feb-18 08:31N 40°38' W 074°10'0 0.0
2018-Feb-18 08:00N 40°38' W 074°10'0 0.0
2018-Feb-18 07:30N 40°38' W 074°10'0 0.0
2018-Feb-18 06:59N 40°38' W 074°10'0 0.0
2018-Feb-18 06:31N 40°38' W 074°10'0 0.0
2018-Feb-18 06:01N 40°38' W 074°10'0 0.0
2018-Feb-18 05:30N 40°38' W 074°10'0 0.0
2018-Feb-18 05:00N 40°38' W 074°10'0 0.0
2018-Feb-18 04:30N 40°38' W 074°10'0 0.0
2018-Feb-18 04:00N 40°38' W 074°10'0 0.0
2018-Feb-18 03:30N 40°38' W 074°10'0 0.0
2018-Feb-18 03:00N 40°38' W 074°10'0 0.0
2018-Feb-18 02:30N 40°38' W 074°10'0 0.0
2018-Feb-18 02:00N 40°38' W 074°10'0 0.0
2018-Feb-18 01:30N 40°38' W 074°10'0 0.0
2018-Feb-18 01:00N 40°38' W 074°10'0 0.0
2018-Feb-18 00:29N 40°38' W 074°10'0 0.0
2018-Feb-18 00:00N 40°38' W 074°10'0 0.0
2018-Feb-17 23:31N 40°38' W 074°10'0 0.0
2018-Feb-17 22:59N 40°38' W 074°10'0 0.0
2018-Feb-17 22:30N 40°38' W 074°10'0 0.0
2018-Feb-17 22:00N 40°38' W 074°10'0 0.0
2018-Feb-17 21:30N 40°38' W 074°10'0 0.0
2018-Feb-17 21:00N 40°38' W 074°10'0 0.0
2018-Feb-17 20:30N 40°38' W 074°10'0 0.0
2018-Feb-17 20:01N 40°38' W 074°10'2 4.4
2018-Feb-17 19:30N 40°39' W 074°07'2 3.7
2018-Feb-17 19:00N 40°40' W 074°08'1 2.6
2018-Feb-17 18:29N 40°42' W 074°08'1 1.6
2018-Feb-17 18:00N 40°41' W 074°08'3 5.9
2018-Feb-17 17:30N 40°38' W 074°10'0 0.0
2018-Feb-17 17:00N 40°38' W 074°10'0 0.0
2018-Feb-17 16:30N 40°38' W 074°10'0 0.0
2018-Feb-17 16:00N 40°38' W 074°10'3 6.7
2018-Feb-17 15:30N 40°39' W 074°05'3 5.4
2018-Feb-17 15:00N 40°39' W 074°09'1 1.6
2018-Feb-17 14:28N 40°38' W 074°10'0 0.0
2018-Feb-17 14:00N 40°38' W 074°10'0 0.0
2018-Feb-17 13:30N 40°38' W 074°10'0 0.0
2018-Feb-17 13:00N 40°38' W 074°10'0 0.0
2018-Feb-17 12:30N 40°38' W 074°10'0 0.0
2018-Feb-17 11:59N 40°38' W 074°10'0 0.0
2018-Feb-17 11:30N 40°38' W 074°10'0 0.0
2018-Feb-17 11:00N 40°38' W 074°10'0 0.0
2018-Feb-17 10:30N 40°38' W 074°10'0 0.0
2018-Feb-17 10:01N 40°38' W 074°10'0 0.0
2018-Feb-17 09:30N 40°38' W 074°10'0 0.0
2018-Feb-17 09:00N 40°38' W 074°10'0 0.0
2018-Feb-17 08:30N 40°38' W 074°10'0 0.0
2018-Feb-17 08:01N 40°38' W 074°10'0 0.0
2018-Feb-17 07:30N 40°38' W 074°10'0 0.0
2018-Feb-17 07:00N 40°38' W 074°10'0 0.0
2018-Feb-17 06:31N 40°38' W 074°10'0 0.0
2018-Feb-17 06:01N 40°38' W 074°10'0 0.0
2018-Feb-17 05:30N 40°38' W 074°10'0 0.0
2018-Feb-17 05:00N 40°38' W 074°10'0 0.0
2018-Feb-17 04:31N 40°38' W 074°10'0 0.0
2018-Feb-17 04:00N 40°38' W 074°10'0 0.0
2018-Feb-17 03:31N 40°38' W 074°10'0 0.0
2018-Feb-17 03:00N 40°38' W 074°10'0 0.0
2018-Feb-17 02:30N 40°38' W 074°10'0 0.0
2018-Feb-17 02:00N 40°38' W 074°10'0 0.0
2018-Feb-17 01:31N 40°38' W 074°10'0 0.0
2018-Feb-17 01:00N 40°38' W 074°10'0 0.0
2018-Feb-17 00:30N 40°38' W 074°10'0 0.0
2018-Feb-17 00:00N 40°38' W 074°10'0 0.0
2018-Feb-16 23:30N 40°38' W 074°10'2 4.7
2018-Feb-16 23:00N 40°41' W 074°09'0 0.9
2018-Feb-16 22:30N 40°40' W 074°08'2 3.4
2018-Feb-16 21:58N 40°39' W 074°08'3 6.5
2018-Feb-16 21:30N 40°39' W 074°04'2 4.3
2018-Feb-16 21:00N 40°37' W 074°03'1 2.3
2018-Feb-16 20:30N 40°38' W 074°04'0 0.0
2018-Feb-16 20:00N 40°38' W 074°04'2 3.8
2018-Feb-16 19:30N 40°39' W 074°03'1 2.7
2018-Feb-16 19:01N 40°40' W 074°05'0 0.1
2018-Feb-16 18:31N 40°40' W 074°05'4 7.7
2018-Feb-16 17:59N 40°38' W 074°10'0 0.5
2018-Feb-16 17:30N 40°38' W 074°10'0 0.0
2018-Feb-16 16:59N 40°38' W 074°10'0 0.0
2018-Feb-16 16:29N 40°38' W 074°10'0 0.0
2018-Feb-16 16:00N 40°38' W 074°10'0 0.0
2018-Feb-16 15:30N 40°38' W 074°10'0 0.0
2018-Feb-16 15:00N 40°38' W 074°10'0 0.0
2018-Feb-16 14:30N 40°38' W 074°10'0 0.0
2018-Feb-16 13:59N 40°38' W 074°10'0 0.0
2018-Feb-16 13:30N 40°38' W 074°10'0 0.0
2018-Feb-16 13:00N 40°38' W 074°10'0 0.0
2018-Feb-16 12:30N 40°38' W 074°10'0 0.0
2018-Feb-16 12:00N 40°38' W 074°10'0 0.0
2018-Feb-16 11:30N 40°38' W 074°10'0 0.0
2018-Feb-16 11:00N 40°38' W 074°10'0 0.0
2018-Feb-16 10:30N 40°38' W 074°10'0 0.0
2018-Feb-16 10:00N 40°38' W 074°10'0 0.0
2018-Feb-16 09:30N 40°38' W 074°10'0 0.0
2018-Feb-16 09:00N 40°38' W 074°10'0 0.0
2018-Feb-16 08:30N 40°38' W 074°10'0 0.0
2018-Feb-16 08:00N 40°38' W 074°10'0 0.0
2018-Feb-16 07:30N 40°38' W 074°10'0 0.0
2018-Feb-16 07:00N 40°38' W 074°10'0 0.0
2018-Feb-16 06:30N 40°38' W 074°10'0 0.0
2018-Feb-16 06:00N 40°38' W 074°10'0 0.0
2018-Feb-16 05:30N 40°38' W 074°10'0 0.0
2018-Feb-16 04:58N 40°38' W 074°10'0 0.0
2018-Feb-16 04:30N 40°38' W 074°10'0 0.0
2018-Feb-16 03:59N 40°38' W 074°10'0 0.0
2018-Feb-16 03:28N 40°38' W 074°10'0 0.0
2018-Feb-16 03:00N 40°38' W 074°10'0 0.0
2018-Feb-16 02:29N 40°38' W 074°10'0 0.0
2018-Feb-16 02:00N 40°38' W 074°10'0 0.0
2018-Feb-16 01:30N 40°38' W 074°10'0 0.0
2018-Feb-16 00:59N 40°38' W 074°10'0 0.0
2018-Feb-16 00:30N 40°38' W 074°10'0 0.0
2018-Feb-16 00:00N 40°38' W 074°10'0 0.0
2018-Feb-15 23:30N 40°38' W 074°10'1 1.5
2018-Feb-15 22:56N 40°39' W 074°09'2 4.1
2018-Feb-15 22:30N 40°41' W 074°09'0 0.4
2018-Feb-15 22:00N 40°41' W 074°09'2 3.0
2018-Feb-15 21:30N 40°39' W 074°09'1 2.0
2018-Feb-15 21:00N 40°38' W 074°10'0 0.0
2018-Feb-15 20:30N 40°38' W 074°10'0 0.0
2018-Feb-15 20:00N 40°38' W 074°10'0 0.0
2018-Feb-15 19:30N 40°38' W 074°10'0 0.0
2018-Feb-15 19:00N 40°38' W 074°10'0 0.1
2018-Feb-15 18:30N 40°39' W 074°10'2 3.7
2018-Feb-15 18:00N 40°38' W 074°12'0 0.0
2018-Feb-15 17:29N 40°38' W 074°12'0 0.0
2018-Feb-15 17:00N 40°38' W 074°12'0 0.0
2018-Feb-15 16:30N 40°38' W 074°12'0 0.0
2018-Feb-15 16:00N 40°38' W 074°12'2 3.1
2018-Feb-15 15:30N 40°39' W 074°11'1 1.4
2018-Feb-15 15:00N 40°38' W 074°10'0 0.0
2018-Feb-15 14:30N 40°38' W 074°10'0 0.0
2018-Feb-15 13:59N 40°38' W 074°10'0 0.0
2018-Feb-15 13:30N 40°38' W 074°10'2 4.6
2018-Feb-15 13:00N 40°40' W 074°08'1 1.1
2018-Feb-15 12:30N 40°41' W 074°08'0 1.0
2018-Feb-15 12:01N 40°41' W 074°08'2 3.9
2018-Feb-15 11:29N 40°39' W 074°09'3 5.5
2018-Feb-15 11:01N 40°39' W 074°05'2 4.4
2018-Feb-15 10:31N 40°38' W 074°03'0 0.2
2018-Feb-15 10:01N 40°38' W 074°03'4 8.2
2018-Feb-15 09:30N 40°39' W 074°08'1 2.3
2018-Feb-15 08:59N 40°38' W 074°10'0 0.1
2018-Feb-15 08:30N 40°38' W 074°10'0 0.0
2018-Feb-15 08:00N 40°38' W 074°10'0 0.0
2018-Feb-15 07:30N 40°38' W 074°10'0 0.0
2018-Feb-15 07:00N 40°38' W 074°10'0 0.0
2018-Feb-15 06:30N 40°38' W 074°10'0 0.0
2018-Feb-15 06:00N 40°38' W 074°10'0 0.0
2018-Feb-15 05:30N 40°38' W 074°10'0 0.0
2018-Feb-15 05:00N 40°38' W 074°10'0 0.0
2018-Feb-15 04:30N 40°38' W 074°10'0 0.0
2018-Feb-15 04:00N 40°38' W 074°10'0 0.0
2018-Feb-15 03:31N 40°38' W 074°10'0 0.0
2018-Feb-15 03:00N 40°38' W 074°10'0 0.0
2018-Feb-15 02:30N 40°38' W 074°10'0 0.0
2018-Feb-15 02:00N 40°38' W 074°10'0 0.0
2018-Feb-15 01:30N 40°38' W 074°10'0 0.0
2018-Feb-15 01:00N 40°38' W 074°10'0 0.0
2018-Feb-15 00:30N 40°38' W 074°10'0 0.0
2018-Feb-15 00:00N 40°38' W 074°10'0 0.0
2018-Feb-14 23:30N 40°38' W 074°10'0 0.0
2018-Feb-14 22:59N 40°38' W 074°10'0 0.0
2018-Feb-14 22:31N 40°38' W 074°10'  

Dump ship's entire track history